Terminal Aerodrome Forecast
Issued by NWS

Home | Current Version | Previous Version | Text Only | Print | Product List | Glossary On
Versions: 1 2 3 4 5 6 7 8 9 10 11 12 13 14 15 16
310
FTUS43 KLSX 190521
TAFCPS
TAF
KCPS 190521Z 1906/2006 31014G24KT P6SM SKC
     FM190900 31009KT P6SM SKC
     FM192300 VRB03KT P6SM SKC=

USA.gov is the U.S. government's official web portal to all federal, state and local government web resources and services.